Time;durP1;ratioP1;P1;durP2;ratioP2;P2;SDS_P1;SDS_P2;PMS_P1;PMS_P2;Temp;Humidity;BMP_temperature;BMP_pressure;BME280_temperature;BME280_humidity;BME280_pressure;Samples;Min_cycle;Max_cycle;Signal;HPM_P1;HPM_P2
2023/05/31 00:00:34;;;;;;;;;;;;;;;14.55;56.46;96176.13;5049941;28;19931;-74
2023/05/31 00:03:01;;;;;;;;;;;;;;;14.38;55.25;96172.09;5041931;28;20555;-73
2023/05/31 00:05:27;;;;;;;;;;;;;;;14.40;55.96;96175.44;5063729;28;19925;-74
2023/05/31 00:07:53;;;;;;;;;;;;;;;14.36;54.46;96180.97;5050740;28;19933;-74
2023/05/31 00:10:20;;;;;;;;;;;;;;;14.43;57.20;96177.81;5054752;28;19925;-75
2023/05/31 00:12:46;;;;;;;;;;;;;;;14.39;58.54;96178.16;5053354;28;19925;-74
2023/05/31 00:15:13;;;;;;;;;;;;;;;14.25;57.78;96179.97;5058564;28;19932;-75
2023/05/31 00:17:40;;;;;;;;;;;;;;;14.15;58.43;96171.13;5058007;28;19925;-74
2023/05/31 00:20:06;;;;;;;;;;;;;;;13.97;59.26;96173.25;5045812;28;20283;-74
2023/05/31 00:22:32;;;;;;;;;;;;;;;13.73;60.50;96167.16;5063124;28;19978;-72
2023/05/31 00:24:59;;;;;;;;;;;;;;;13.57;61.50;96162.13;5046226;28;19929;-72
2023/05/31 00:27:25;;;;;;;;;;;;;;;13.60;62.16;96156.72;5064064;28;19924;-72
2023/05/31 00:29:51;;;;;;;;;;;;;;;13.34;61.40;96160.28;5052489;28;19926;-71
2023/05/31 00:32:19;;;;;;;;;;;;;;;13.38;62.86;96159.97;5062738;28;20338;-73
2023/05/31 00:34:45;;;;;;;;;;;;;;;13.33;63.09;96167.25;5053144;28;19925;-72
2023/05/31 00:37:11;;;;;;;;;;;;;;;13.22;63.72;96165.34;5056105;28;19925;-72
2023/05/31 00:39:38;;;;;;;;;;;;;;;13.20;64.33;96163.75;5063431;28;20415;-73
2023/05/31 00:42:04;;;;;;;;;;;;;;;13.09;65.02;96167.13;5054224;28;20310;-73
2023/05/31 00:44:31;;;;;;;;;;;;;;;13.10;64.55;96162.75;5062726;28;19924;-72
2023/05/31 00:46:57;;;;;;;;;;;;;;;12.90;65.57;96169.22;5061461;28;19928;-72
2023/05/31 00:49:26;;;;;;;;;;;;;;;12.90;65.75;96170.06;5066170;28;19959;-72
2023/05/31 00:51:53;;;;;;;;;;;;;;;12.96;64.71;96171.44;5060616;28;19925;-72
2023/05/31 00:54:19;;;;;;;;;;;;;;;12.98;65.23;96173.03;5063781;28;19925;-72
2023/05/31 00:56:45;;;;;;;;;;;;;;;12.91;65.04;96178.72;5071989;28;19924;-74
2023/05/31 00:59:12;;;;;;;;;;;;;;;13.05;65.42;96168.22;5065891;28;19925;-72
2023/05/31 01:01:38;;;;;;;;;;;;;;;13.04;64.78;96169.16;5061371;28;20437;-72
2023/05/31 01:04:05;;;;;;;;;;;;;;;13.16;65.78;96162.31;5045750;28;19925;-72
2023/05/31 01:06:34;;;;;;;;;;;;;;;13.13;64.22;96163.38;5061735;28;19925;-72
2023/05/31 01:09:02;;;;;;;;;;;;;;;13.01;65.22;96162.38;5051601;28;19978;-72
2023/05/31 01:11:35;;;;;;;;;;;;;;;12.94;66.13;96165.50;5065409;28;19939;-72
2023/05/31 01:14:06;;;;;;;;;;;;;;;12.92;64.85;96162.19;5059540;28;19932;-72
2023/05/31 01:16:36;;;;;;;;;;;;;;;12.92;65.93;96165.63;5050279;28;19946;-72
2023/05/31 01:19:06;;;;;;;;;;;;;;;12.79;66.14;96165.59;5054206;28;20323;-72
2023/05/31 01:21:46;;;;;;;;;;;;;;;12.84;64.15;96162.69;5046520;28;19925;-72
2023/05/31 01:24:18;;;;;;;;;;;;;;;12.93;64.35;96163.84;5044506;28;19972;-72
2023/05/31 01:26:48;;;;;;;;;;;;;;;12.97;65.17;96160.09;5058032;28;19928;-72
2023/05/31 01:29:17;;;;;;;;;;;;;;;12.77;66.72;96166.63;5057136;28;20311;-72
2023/05/31 01:31:45;;;;;;;;;;;;;;;12.74;66.65;96166.81;5043511;28;19986;-72
2023/05/31 01:34:12;;;;;;;;;;;;;;;12.63;67.05;96167.50;5057956;28;19925;-72
2023/05/31 01:36:38;;;;;;;;;;;;;;;12.67;67.61;96166.38;5059740;28;19936;-72
2023/05/31 01:39:05;;;;;;;;;;;;;;;12.56;67.58;96169.66;5052987;28;19932;-72
2023/05/31 01:41:34;;;;;;;;;;;;;;;12.55;67.77;96164.56;5053570;28;19930;-72
2023/05/31 01:44:01;;;;;;;;;;;;;;;12.47;67.13;96165.06;5054971;28;20330;-72
2023/05/31 01:46:28;;;;;;;;;;;;;;;12.59;67.29;96171.22;5050183;28;20342;-73
2023/05/31 01:48:55;;;;;;;;;;;;;;;12.47;67.86;96166.84;5065772;28;19932;-72
2023/05/31 01:51:22;;;;;;;;;;;;;;;12.48;68.50;96171.09;5057112;28;19960;-72
2023/05/31 01:53:48;;;;;;;;;;;;;;;12.42;68.19;96169.72;5064184;28;20062;-72
2023/05/31 01:56:15;;;;;;;;;;;;;;;12.39;68.42;96169.09;5045198;28;20003;-72
2023/05/31 01:58:44;;;;;;;;;;;;;;;12.44;68.54;96174.81;5068231;28;19924;-72
2023/05/31 02:01:12;;;;;;;;;;;;;;;12.39;67.95;96175.13;5053337;28;19925;-72
2023/05/31 02:03:39;;;;;;;;;;;;;;;12.38;67.81;96173.44;5053257;28;19928;-73
2023/05/31 02:06:05;;;;;;;;;;;;;;;12.25;68.82;96170.78;5057936;28;19960;-71
2023/05/31 02:08:32;;;;;;;;;;;;;;;12.24;69.52;96174.31;5044116;28;19925;-72
2023/05/31 02:10:58;;;;;;;;;;;;;;;12.24;69.33;96173.50;5062803;28;19933;-72
2023/05/31 02:13:26;;;;;;;;;;;;;;;12.27;68.99;96173.28;5054979;28;19968;-72
2023/05/31 02:15:53;;;;;;;;;;;;;;;12.33;68.26;96167.69;5042740;28;20045;-72
2023/05/31 02:18:21;;;;;;;;;;;;;;;12.24;68.17;96163.09;5058443;28;20012;-72
2023/05/31 02:20:47;;;;;;;;;;;;;;;12.28;69.00;96170.59;5047048;28;19925;-72
2023/05/31 02:23:14;;;;;;;;;;;;;;;12.20;68.88;96161.59;5057181;28;19932;-72
2023/05/31 02:25:40;;;;;;;;;;;;;;;12.18;69.67;96161.72;5052382;28;19924;-72
2023/05/31 02:28:07;;;;;;;;;;;;;;;12.16;69.93;96160.13;5058210;28;19925;-73
2023/05/31 02:30:36;;;;;;;;;;;;;;;12.17;69.42;96154.03;5046918;28;19928;-72
2023/05/31 02:33:02;;;;;;;;;;;;;;;11.99;69.58;96154.25;5055725;28;19987;-72
2023/05/31 02:35:30;;;;;;;;;;;;;;;12.02;71.17;96159.25;5057947;28;19928;-72
2023/05/31 02:37:56;;;;;;;;;;;;;;;12.01;71.78;96159.31;5054643;28;20383;-72
2023/05/31 02:40:22;;;;;;;;;;;;;;;11.90;72.24;96159.16;5055172;28;20003;-72
2023/05/31 02:42:48;;;;;;;;;;;;;;;11.92;72.38;96159.91;5061967;28;19936;-72
2023/05/31 02:45:15;;;;;;;;;;;;;;;11.92;72.95;96157.31;5056508;28;19925;-72
2023/05/31 02:47:41;;;;;;;;;;;;;;;11.93;71.97;96161.56;5056941;28;20333;-72
2023/05/31 02:50:09;;;;;;;;;;;;;;;11.97;72.08;96163.03;5061776;28;19931;-72
2023/05/31 02:52:36;;;;;;;;;;;;;;;11.98;70.94;96155.19;5057164;28;20007;-72
2023/05/31 02:55:03;;;;;;;;;;;;;;;12.06;71.92;96162.50;5056410;28;19929;-72
2023/05/31 02:57:29;;;;;;;;;;;;;;;12.02;71.39;96153.22;5053110;28;19932;-72
2023/05/31 02:59:56;;;;;;;;;;;;;;;12.00;72.58;96160.25;5062551;28;19925;-72
2023/05/31 03:02:22;;;;;;;;;;;;;;;11.98;71.27;96157.78;5042641;28;19994;-72
2023/05/31 03:04:49;;;;;;;;;;;;;;;12.22;71.41;96160.59;5051107;28;19934;-72
2023/05/31 03:07:15;;;;;;;;;;;;;;;12.11;71.69;96157.84;5056457;28;19925;-72
2023/05/31 03:09:43;;;;;;;;;;;;;;;12.05;69.85;96160.81;5046639;28;20418;-71
2023/05/31 03:12:10;;;;;;;;;;;;;;;12.19;71.72;96165.97;5061825;28;20345;-71
2023/05/31 03:14:36;;;;;;;;;;;;;;;11.96;73.27;96163.97;5055665;28;19947;-72
2023/05/31 03:17:03;;;;;;;;;;;;;;;11.94;72.68;96158.91;5048691;28;19999;-73
2023/05/31 03:19:29;;;;;;;;;;;;;;;11.84;72.58;96161.22;5047077;28;19933;-72
2023/05/31 03:21:55;;;;;;;;;;;;;;;11.89;73.25;96158.34;5061113;28;19936;-72
2023/05/31 03:24:22;;;;;;;;;;;;;;;11.80;73.62;96159.72;5052564;28;20024;-71
2023/05/31 03:26:50;;;;;;;;;;;;;;;11.77;72.93;96159.06;5050685;28;19925;-72
2023/05/31 03:29:16;;;;;;;;;;;;;;;11.80;72.59;96159.72;5057776;28;19947;-72
2023/05/31 03:31:42;;;;;;;;;;;;;;;11.83;72.71;96164.75;5056398;28;19925;-72
2023/05/31 03:34:09;;;;;;;;;;;;;;;11.89;72.42;96162.69;5052530;28;19929;-72
2023/05/31 03:36:35;;;;;;;;;;;;;;;11.92;72.16;96165.09;5055552;28;19929;-72
2023/05/31 03:39:02;;;;;;;;;;;;;;;11.92;72.24;96171.13;5053779;28;19925;-72
2023/05/31 03:41:28;;;;;;;;;;;;;;;11.95;71.51;96172.72;5056533;28;19928;-72
2023/05/31 03:43:56;;;;;;;;;;;;;;;11.94;71.29;96173.63;5045684;28;19929;-72
2023/05/31 03:46:22;;;;;;;;;;;;;;;11.91;72.32;96169.47;5055616;28;19971;-72
2023/05/31 03:48:48;;;;;;;;;;;;;;;11.88;71.31;96169.66;5063313;28;20410;-72
2023/05/31 03:51:14;;;;;;;;;;;;;;;11.90;72.37;96172.13;5038497;28;19952;-72
2023/05/31 03:53:41;;;;;;;;;;;;;;;11.60;73.10;96171.28;5064666;28;19932;-72
2023/05/31 03:56:07;;;;;;;;;;;;;;;11.75;72.46;96179.91;5049215;28;19926;-74
2023/05/31 03:58:33;;;;;;;;;;;;;;;11.80;73.27;96175.28;5065898;28;19929;-73
2023/05/31 04:01:02;;;;;;;;;;;;;;;11.85;72.01;96173.25;5046675;28;19932;-73
2023/05/31 04:03:28;;;;;;;;;;;;;;;11.90;74.01;96175.56;5052972;28;19929;-73
2023/05/31 04:05:55;;;;;;;;;;;;;;;11.97;72.23;96181.22;5056240;28;19929;-72
2023/05/31 04:08:21;;;;;;;;;;;;;;;12.02;70.36;96174.00;5049887;28;19933;-72
2023/05/31 04:10:47;;;;;;;;;;;;;;;12.03;67.86;96175.66;5062290;28;20394;-72
2023/05/31 04:13:13;;;;;;;;;;;;;;;12.12;71.98;96175.06;5053623;28;19929;-72
2023/05/31 04:15:40;;;;;;;;;;;;;;;12.11;72.07;96183.78;5059880;28;19932;-72
2023/05/31 04:18:07;;;;;;;;;;;;;;;12.11;71.69;96181.19;5057735;28;20391;-72
2023/05/31 04:20:34;;;;;;;;;;;;;;;12.17;70.42;96188.63;5054996;28;20268;-71
2023/05/31 04:23:00;;;;;;;;;;;;;;;12.26;70.82;96177.63;5063780;28;19925;-73
2023/05/31 04:25:27;;;;;;;;;;;;;;;12.17;70.17;96180.00;5065017;28;19925;-72
2023/05/31 04:27:54;;;;;;;;;;;;;;;12.28;74.92;96177.56;5067483;28;19972;-72
2023/05/31 04:30:20;;;;;;;;;;;;;;;12.28;75.62;96183.59;5057518;28;19925;-71
2023/05/31 04:32:52;;;;;;;;;;;;;;;12.35;73.16;96187.47;5072715;28;19954;-72
2023/05/31 04:35:19;;;;;;;;;;;;;;;12.54;82.19;96192.31;5063366;28;19969;-72
2023/05/31 04:37:48;;;;;;;;;;;;;;;12.37;73.84;96178.72;5050751;28;19929;-71
2023/05/31 04:40:14;;;;;;;;;;;;;;;12.48;78.09;96177.13;5059306;28;20019;-72
2023/05/31 04:42:41;;;;;;;;;;;;;;;12.56;79.15;96180.06;5060265;28;19979;-72
2023/05/31 04:45:08;;;;;;;;;;;;;;;12.53;78.44;96187.22;5058845;28;19925;-72
2023/05/31 04:47:35;;;;;;;;;;;;;;;12.58;80.75;96190.38;5062333;28;19925;-73
2023/05/31 04:50:01;;;;;;;;;;;;;;;12.64;81.78;96192.53;5048693;28;19924;-72
2023/05/31 04:52:30;;;;;;;;;;;;;;;12.59;79.17;96189.41;5050390;28;19964;-72
2023/05/31 04:54:57;;;;;;;;;;;;;;;12.77;81.62;96187.41;5055579;28;20011;-72
2023/05/31 04:57:24;;;;;;;;;;;;;;;12.97;82.20;96189.53;5052962;28;19977;-72
2023/05/31 04:59:50;;;;;;;;;;;;;;;13.01;80.75;96193.59;5062145;28;19932;-72
2023/05/31 05:02:18;;;;;;;;;;;;;;;13.16;79.72;96188.31;5060332;28;19947;-72
2023/05/31 05:04:44;;;;;;;;;;;;;;;13.25;77.33;96193.78;5062159;28;19932;-72
2023/05/31 05:07:10;;;;;;;;;;;;;;;13.34;74.93;96187.13;5059535;28;19925;-72
2023/05/31 05:09:38;;;;;;;;;;;;;;;13.52;76.40;96187.66;5064048;28;19974;-72
2023/05/31 05:12:04;;;;;;;;;;;;;;;13.69;74.16;96187.34;5057875;28;20306;-72
2023/05/31 05:14:31;;;;;;;;;;;;;;;13.76;73.78;96186.00;5060116;28;19924;-72
2023/05/31 05:16:57;;;;;;;;;;;;;;;13.92;72.55;96190.13;5061712;28;19924;-72
2023/05/31 05:19:24;;;;;;;;;;;;;;;13.96;67.80;96194.19;5054755;28;19936;-72
2023/05/31 05:21:50;;;;;;;;;;;;;;;14.03;68.42;96191.06;5060484;28;19973;-73
2023/05/31 05:24:16;;;;;;;;;;;;;;;13.93;68.50;96190.00;5057647;28;20399;-73
2023/05/31 05:26:44;;;;;;;;;;;;;;;14.09;71.93;96196.75;5073466;28;19968;-72
2023/05/31 05:29:10;;;;;;;;;;;;;;;14.33;67.24;96196.81;5059247;28;19944;-73
2023/05/31 05:31:36;;;;;;;;;;;;;;;14.37;63.57;96200.88;5054146;28;19928;-73
2023/05/31 05:34:03;;;;;;;;;;;;;;;14.55;62.87;96193.56;5068167;28;19925;-74
2023/05/31 05:36:29;;;;;;;;;;;;;;;14.67;60.54;96184.84;5046875;28;19933;-73
2023/05/31 05:38:58;;;;;;;;;;;;;;;14.63;60.90;96189.44;5057763;28;19954;-72
2023/05/31 05:41:25;;;;;;;;;;;;;;;14.89;65.28;96199.75;5049245;28;20370;-72
2023/05/31 05:43:53;;;;;;;;;;;;;;;14.75;61.44;96198.97;5058254;28;19970;-72
2023/05/31 05:46:19;;;;;;;;;;;;;;;14.72;60.28;96198.34;5046686;28;20407;-75
2023/05/31 05:48:45;;;;;;;;;;;;;;;14.88;59.48;96203.31;5053025;28;19944;-74
2023/05/31 05:51:12;;;;;;;;;;;;;;;14.76;60.02;96197.22;5034394;28;20646;-75
2023/05/31 05:53:39;;;;;;;;;;;;;;;15.16;63.88;96200.31;5072675;28;19928;-72
2023/05/31 05:56:05;;;;;;;;;;;;;;;15.08;58.07;96200.06;5048532;28;19925;-74
2023/05/31 05:58:32;;;;;;;;;;;;;;;15.03;55.71;96199.56;5048830;28;19928;-74
2023/05/31 06:00:59;;;;;;;;;;;;;;;15.07;56.65;96201.00;5065890;28;19925;-75
2023/05/31 06:03:26;;;;;;;;;;;;;;;15.17;58.26;96207.22;5054006;28;19937;-74
2023/05/31 06:05:52;;;;;;;;;;;;;;;15.45;60.27;96199.91;5058336;28;19935;-72
2023/05/31 06:08:19;;;;;;;;;;;;;;;15.41;58.09;96207.16;5054706;28;19929;-73
2023/05/31 06:10:45;;;;;;;;;;;;;;;15.51;55.81;96203.88;5060733;28;19929;-74
2023/05/31 06:13:12;;;;;;;;;;;;;;;15.56;62.92;96199.94;5052014;28;19971;-73
2023/05/31 06:15:38;;;;;;;;;;;;;;;15.64;59.89;96204.59;5067399;28;20015;-73
2023/05/31 06:18:06;;;;;;;;;;;;;;;15.86;58.22;96202.03;5057051;28;19982;-73
2023/05/31 06:20:32;;;;;;;;;;;;;;;15.95;60.58;96197.88;5048526;28;19962;-72
2023/05/31 06:22:58;;;;;;;;;;;;;;;15.95;58.43;96196.09;5049035;28;19929;-72
2023/05/31 06:25:25;;;;;;;;;;;;;;;16.13;59.44;96204.28;5049383;28;19987;-74
2023/05/31 06:27:51;;;;;;;;;;;;;;;16.21;55.75;96201.91;5065912;28;19925;-73
2023/05/31 06:30:17;;;;;;;;;;;;;;;16.34;57.03;96206.16;5051879;28;20362;-73
2023/05/31 06:32:43;;;;;;;;;;;;;;;16.61;56.69;96200.50;5071457;28;19947;-73
2023/05/31 06:35:11;;;;;;;;;;;;;;;16.48;58.35;96200.69;5054930;28;19979;-73
2023/05/31 06:37:38;;;;;;;;;;;;;;;16.71;59.19;96206.69;5056102;28;19967;-74
2023/05/31 06:40:06;;;;;;;;;;;;;;;16.77;58.64;96198.38;5055683;28;19926;-74
2023/05/31 06:42:33;;;;;;;;;;;;;;;16.57;59.89;96201.72;5053357;28;19932;-74
2023/05/31 06:44:59;;;;;;;;;;;;;;;16.70;58.53;96197.19;5058654;28;19933;-74
2023/05/31 06:47:25;;;;;;;;;;;;;;;16.99;57.83;96199.25;5059926;28;19925;-74
2023/05/31 06:49:51;;;;;;;;;;;;;;;17.07;58.07;96202.06;5062171;28;19925;-74
2023/05/31 06:52:19;;;;;;;;;;;;;;;17.18;57.74;96197.63;5048970;28;19932;-74
2023/05/31 06:54:45;;;;;;;;;;;;;;;17.05;55.04;96191.72;5060324;28;19978;-74
2023/05/31 06:57:12;;;;;;;;;;;;;;;17.39;58.78;96194.16;5055741;28;20379;-73
2023/05/31 06:59:38;;;;;;;;;;;;;;;17.44;58.31;96188.56;5047708;28;19936;-73
2023/05/31 07:02:04;;;;;;;;;;;;;;;17.47;56.48;96191.75;5053594;28;19931;-73
2023/05/31 07:04:31;;;;;;;;;;;;;;;17.57;56.29;96187.38;5051838;28;19924;-73
2023/05/31 07:06:57;;;;;;;;;;;;;;;17.81;56.12;96194.19;5049142;28;19929;-74
2023/05/31 07:09:24;;;;;;;;;;;;;;;17.69;54.71;96184.69;5052438;28;20323;-73
2023/05/31 07:11:51;;;;;;;;;;;;;;;17.63;56.16;96191.28;5057264;28;19933;-73
2023/05/31 07:14:17;;;;;;;;;;;;;;;17.88;51.58;96187.47;5046083;28;19937;-72
2023/05/31 07:16:43;;;;;;;;;;;;;;;17.88;56.39;96182.22;5059734;28;19929;-72
2023/05/31 07:19:10;;;;;;;;;;;;;;;17.94;52.07;96183.47;5048286;28;19924;-72
2023/05/31 07:21:37;;;;;;;;;;;;;;;18.30;56.61;96195.19;5056665;28;20208;-72
2023/05/31 07:24:04;;;;;;;;;;;;;;;18.35;55.12;96188.59;5047394;28;20386;-72
2023/05/31 07:26:31;;;;;;;;;;;;;;;18.26;56.31;96189.38;5045190;28;19947;-72
2023/05/31 07:28:57;;;;;;;;;;;;;;;18.07;51.27;96187.53;5059509;28;19948;-71
2023/05/31 07:31:24;;;;;;;;;;;;;;;18.33;51.82;96195.75;5055252;28;19936;-73
2023/05/31 07:33:50;;;;;;;;;;;;;;;18.58;56.17;96191.81;5057274;28;20284;-74
2023/05/31 07:36:17;;;;;;;;;;;;;;;18.49;49.62;96192.63;5062534;28;20071;-73
2023/05/31 07:38:43;;;;;;;;;;;;;;;18.11;49.74;96188.09;5058671;28;19951;-74
2023/05/31 07:41:10;;;;;;;;;;;;;;;18.60;53.31;96187.25;5062427;28;20628;-74
2023/05/31 07:43:39;;;;;;;;;;;;;;;18.84;53.99;96181.66;5054539;28;20384;-73
2023/05/31 07:46:05;;;;;;;;;;;;;;;19.05;50.44;96188.56;5052210;28;19928;-73
2023/05/31 07:48:33;;;;;;;;;;;;;;;19.16;49.55;96183.19;5067558;28;19925;-73
2023/05/31 07:50:59;;;;;;;;;;;;;;;18.97;48.19;96177.94;5055487;28;19925;-74
2023/05/31 07:53:25;;;;;;;;;;;;;;;19.23;48.06;96175.56;5065151;28;19947;-73
2023/05/31 07:55:52;;;;;;;;;;;;;;;19.40;48.42;96174.06;5055485;28;19932;-74
2023/05/31 07:58:19;;;;;;;;;;;;;;;19.66;54.71;96174.31;5061070;28;19929;-74
2023/05/31 08:00:47;;;;;;;;;;;;;;;19.53;47.12;96170.13;5055536;28;19924;-73
2023/05/31 08:03:13;;;;;;;;;;;;;;;20.00;55.10;96172.78;5045682;28;19929;-74
2023/05/31 08:05:39;;;;;;;;;;;;;;;20.12;49.80;96175.22;5062793;28;19924;-73
2023/05/31 08:08:06;;;;;;;;;;;;;;;20.11;50.82;96169.16;5059820;28;19931;-73
2023/05/31 08:10:33;;;;;;;;;;;;;;;20.02;50.33;96168.22;5055054;28;19924;-74
2023/05/31 08:12:59;;;;;;;;;;;;;;;19.77;49.57;96176.75;5057437;28;19999;-74
2023/05/31 08:15:25;;;;;;;;;;;;;;;19.33;52.38;96174.59;5063749;28;19928;-74
2023/05/31 08:17:53;;;;;;;;;;;;;;;19.69;51.27;96163.47;5063428;28;19936;-73
2023/05/31 08:20:19;;;;;;;;;;;;;;;19.79;47.98;96172.16;5050671;28;19948;-72
2023/05/31 08:22:45;;;;;;;;;;;;;;;20.06;50.34;96159.09;5055181;28;19925;-73
2023/05/31 08:25:13;;;;;;;;;;;;;;;19.40;49.47;96176.69;5050396;28;19937;-74
2023/05/31 08:27:39;;;;;;;;;;;;;;;19.66;51.89;96163.78;5069214;28;19968;-73
2023/05/31 08:30:06;;;;;;;;;;;;;;;19.73;50.34;96163.06;5045121;28;20394;-72
2023/05/31 08:32:32;;;;;;;;;;;;;;;19.87;49.67;96164.38;5062144;28;20448;-73
2023/05/31 08:35:00;;;;;;;;;;;;;;;20.28;47.59;96172.78;5048983;28;19929;-73
2023/05/31 08:37:26;;;;;;;;;;;;;;;20.38;49.29;96163.06;5045645;28;19925;-73
2023/05/31 08:39:53;;;;;;;;;;;;;;;20.52;49.04;96159.13;5045751;28;20021;-73
2023/05/31 08:42:25;;;;;;;;;;;;;;;20.48;51.14;96153.31;5055113;28;19929;-73
2023/05/31 08:44:51;;;;;;;;;;;;;;;20.76;47.33;96156.75;5067083;28;20440;-73
2023/05/31 08:47:20;;;;;;;;;;;;;;;20.47;47.58;96154.28;5055037;28;19936;-73
2023/05/31 08:49:47;;;;;;;;;;;;;;;20.62;49.02;96151.19;5057183;28;19925;-73
2023/05/31 08:52:16;;;;;;;;;;;;;;;20.98;46.34;96149.38;5051601;28;19932;-73
2023/05/31 08:54:43;;;;;;;;;;;;;;;20.94;49.05;96148.03;5060589;28;20019;-73
2023/05/31 08:57:11;;;;;;;;;;;;;;;21.01;49.48;96152.53;5053938;28;20330;-73
2023/05/31 08:59:37;;;;;;;;;;;;;;;20.81;44.87;96155.47;5045617;28;19929;-73
2023/05/31 09:02:04;;;;;;;;;;;;;;;20.93;45.87;96144.56;5039338;28;19929;-73
2023/05/31 09:04:30;;;;;;;;;;;;;;;21.06;46.04;96151.25;5048548;28;20040;-74
2023/05/31 09:06:56;;;;;;;;;;;;;;;20.97;44.63;96151.19;5055484;28;19928;-75
2023/05/31 09:09:24;;;;;;;;;;;;;;;21.08;45.32;96144.03;5047424;28;19932;-74
2023/05/31 09:11:50;;;;;;;;;;;;;;;21.44;46.88;96156.19;5068619;28;19925;-75
2023/05/31 09:14:17;;;;;;;;;;;;;;;21.14;45.83;96143.44;5051706;28;19925;-72
2023/05/31 09:16:43;;;;;;;;;;;;;;;21.49;45.36;96151.28;5068140;28;19997;-74
2023/05/31 09:19:09;;;;;;;;;;;;;;;21.72;42.83;96148.94;5050423;28;19933;-73
2023/05/31 09:21:39;;;;;;;;;;;;;;;21.85;45.82;96145.09;5063204;28;19928;-73
2023/05/31 09:24:06;;;;;;;;;;;;;;;21.82;41.00;96146.22;5060906;28;20007;-73
2023/05/31 09:26:34;;;;;;;;;;;;;;;21.58;40.62;96148.69;5055028;28;20011;-73
2023/05/31 09:29:00;;;;;;;;;;;;;;;21.79;41.39;96138.63;5053809;28;20295;-73
2023/05/31 09:31:27;;;;;;;;;;;;;;;22.32;43.71;96153.41;5045518;28;19929;-73
2023/05/31 09:33:54;;;;;;;;;;;;;;;22.30;38.80;96154.53;5054338;28;20403;-73
2023/05/31 09:36:24;;;;;;;;;;;;;;;21.79;43.00;96148.34;5058705;28;19974;-74
2023/05/31 09:38:50;;;;;;;;;;;;;;;21.21;43.90;96147.09;5056748;28;19931;-74
2023/05/31 09:41:18;;;;;;;;;;;;;;;21.48;46.25;96143.53;5068783;28;19931;-74
2023/05/31 09:43:47;;;;;;;;;;;;;;;21.64;46.16;96141.00;5059425;28;19924;-74
2023/05/31 09:46:14;;;;;;;;;;;;;;;22.08;45.51;96142.72;5057106;28;20394;-75
2023/05/31 09:48:40;;;;;;;;;;;;;;;22.05;38.62;96128.03;5064713;28;20418;-74
2023/05/31 09:51:07;;;;;;;;;;;;;;;22.04;38.20;96136.94;5051855;28;19933;-74
2023/05/31 09:53:36;;;;;;;;;;;;;;;22.08;41.77;96138.25;5058627;28;19934;-77
2023/05/31 09:56:04;;;;;;;;;;;;;;;22.16;40.59;96143.59;5055552;28;20323;-77
2023/05/31 09:58:31;;;;;;;;;;;;;;;22.05;37.96;96135.13;5067453;28;19939;-77
2023/05/31 10:01:00;;;;;;;;;;;;;;;21.95;40.74;96136.06;5052536;28;19932;-76
2023/05/31 10:03:28;;;;;;;;;;;;;;;21.75;43.52;96132.00;5059328;28;19948;-71
2023/05/31 10:05:54;;;;;;;;;;;;;;;21.79;41.80;96130.72;5054367;28;19932;-70
2023/05/31 10:08:21;;;;;;;;;;;;;;;21.87;38.29;96143.09;5057840;28;20326;-75
2023/05/31 10:10:47;;;;;;;;;;;;;;;21.89;40.47;96141.16;5070256;28;19932;-73
2023/05/31 10:13:14;;;;;;;;;;;;;;;22.06;39.20;96139.41;5058199;28;19929;-74
2023/05/31 10:15:41;;;;;;;;;;;;;;;21.92;44.95;96125.00;5065939;28;20018;-74
2023/05/31 10:18:11;;;;;;;;;;;;;;;22.01;38.56;96139.06;5048860;28;19979;-74
2023/05/31 10:20:39;;;;;;;;;;;;;;;22.12;37.89;96133.50;5043315;28;19925;-74
2023/05/31 10:23:09;;;;;;;;;;;;;;;22.50;40.05;96132.16;5057415;28;20396;-74
2023/05/31 10:25:39;;;;;;;;;;;;;;;22.20;40.50;96123.00;5051666;28;19924;-74
2023/05/31 10:28:08;;;;;;;;;;;;;;;22.09;38.71;96137.28;5063467;28;19929;-74
2023/05/31 10:30:37;;;;;;;;;;;;;;;22.26;44.61;96129.47;5049130;28;19932;-74
2023/05/31 10:33:06;;;;;;;;;;;;;;;22.18;40.31;96130.25;5064765;28;20365;-74
2023/05/31 10:35:34;;;;;;;;;;;;;;;22.13;36.40;96119.31;5066019;28;19932;-73
2023/05/31 10:38:01;;;;;;;;;;;;;;;22.01;38.52;96118.78;5060340;28;19924;-74
2023/05/31 10:40:34;;;;;;;;;;;;;;;22.21;39.70;96114.94;5066392;28;19952;-73
2023/05/31 10:43:04;;;;;;;;;;;;;;;22.39;34.99;96119.25;5053157;28;20431;-73
2023/05/31 10:45:35;;;;;;;;;;;;;;;22.53;38.46;96112.53;5062102;28;19931;-74
2023/05/31 10:48:03;;;;;;;;;;;;;;;22.46;38.20;96125.56;5065489;28;19925;-74
2023/05/31 10:50:30;;;;;;;;;;;;;;;22.20;37.07;96117.72;5053148;28;19932;-74
2023/05/31 10:53:10;;;;;;;;;;;;;;;22.09;39.67;96117.97;5052293;28;19929;-74
2023/05/31 10:55:41;;;;;;;;;;;;;;;22.34;38.60;96118.94;5051547;28;19982;-73
2023/05/31 10:58:07;;;;;;;;;;;;;;;22.71;40.41;96121.97;5063905;28;20333;-74
2023/05/31 11:00:42;;;;;;;;;;;;;;;22.66;38.67;96112.91;5057712;28;19970;-74
2023/05/31 11:03:09;;;;;;;;;;;;;;;22.65;35.01;96114.69;5052412;28;19929;-73
2023/05/31 11:05:35;;;;;;;;;;;;;;;22.92;39.48;96112.81;5058658;28;20015;-73
2023/05/31 11:08:13;;;;;;;;;;;;;;;22.60;34.36;96105.63;5060456;28;21301;-74
2023/05/31 11:10:40;;;;;;;;;;;;;;;22.54;34.70;96116.81;5059356;28;19928;-74
2023/05/31 11:13:08;;;;;;;;;;;;;;;22.58;38.82;96116.38;5047344;28;19929;-73
2023/05/31 11:15:41;;;;;;;;;;;;;;;22.54;35.70;96112.38;5056082;28;19951;-73
2023/05/31 11:18:08;;;;;;;;;;;;;;;22.68;36.51;96111.75;5056131;28;19931;-75
2023/05/31 11:20:35;;;;;;;;;;;;;;;22.65;37.63;96100.69;5047435;28;19963;-76
2023/05/31 11:23:20;;;;;;;;;;;;;;;22.47;36.19;96103.44;5049739;28;20447;-75
2023/05/31 11:26:07;;;;;;;;;;;;;;;22.65;40.16;96106.78;5036411;28;19979;-76
2023/05/31 11:28:50;;;;;;;;;;;;;;;22.38;36.06;96093.88;5064247;28;20394;-76
2023/05/31 11:31:17;;;;;;;;;;;;;;;22.56;37.50;96086.66;5035883;28;20358;-75
2023/05/31 11:33:46;;;;;;;;;;;;;;;22.49;39.11;96098.03;5042006;28;19963;-75
2023/05/31 11:36:15;;;;;;;;;;;;;;;22.45;34.03;96092.25;5067946;28;19932;-76
2023/05/31 11:38:42;;;;;;;;;;;;;;;22.51;34.43;96088.97;5050271;28;20008;-77
2023/05/31 11:41:10;;;;;;;;;;;;;;;22.85;36.94;96088.81;5055039;28;19928;-76
2023/05/31 11:43:36;;;;;;;;;;;;;;;22.94;35.46;96079.94;5035460;28;19936;-76
2023/05/31 11:46:03;;;;;;;;;;;;;;;22.84;32.94;96073.97;5052886;28;19925;-74
2023/05/31 11:48:39;;;;;;;;;;;;;;;23.19;37.14;96082.56;5065082;28;20413;-74
2023/05/31 11:51:05;;;;;;;;;;;;;;;22.99;34.70;96084.75;5058673;28;20341;-74
2023/05/31 11:53:32;;;;;;;;;;;;;;;22.90;34.13;96093.59;5063052;28;19924;-74
2023/05/31 11:55:59;;;;;;;;;;;;;;;22.80;33.54;96092.94;5057252;28;19944;-74
2023/05/31 11:58:28;;;;;;;;;;;;;;;22.65;33.42;96082.19;5048584;28;19932;-75
2023/05/31 12:00:57;;;;;;;;;;;;;;;22.65;33.04;96084.84;5053909;28;20363;-75
2023/05/31 12:03:24;;;;;;;;;;;;;;;22.83;35.53;96076.78;5051769;28;19929;-75
2023/05/31 12:05:51;;;;;;;;;;;;;;;22.99;33.83;96086.53;5058468;28;19935;-75
2023/05/31 12:08:18;;;;;;;;;;;;;;;22.67;36.08;96072.31;5061297;28;20019;-76
2023/05/31 12:10:45;;;;;;;;;;;;;;;22.93;41.97;96078.28;5067793;28;19925;-75
2023/05/31 12:13:12;;;;;;;;;;;;;;;22.79;33.73;96072.81;5054778;28;19925;-76
2023/05/31 12:15:39;;;;;;;;;;;;;;;22.49;33.23;96069.00;5069244;28;20460;-77
2023/05/31 12:18:06;;;;;;;;;;;;;;;22.67;37.53;96074.94;5054578;28;19924;-77
2023/05/31 12:20:32;;;;;;;;;;;;;;;22.90;39.15;96069.84;5056009;28;19925;-75
2023/05/31 12:23:10;;;;;;;;;;;;;;;22.74;34.54;96067.22;5052640;28;19933;-76
2023/05/31 12:25:36;;;;;;;;;;;;;;;22.91;37.29;96058.28;5063875;28;19924;-74
2023/05/31 12:28:02;;;;;;;;;;;;;;;22.60;32.09;96053.66;5059267;28;19933;-75
2023/05/31 12:30:29;;;;;;;;;;;;;;;22.68;32.67;96058.13;5061736;28;19924;-73
2023/05/31 12:32:59;;;;;;;;;;;;;;;22.90;35.36;96062.72;5061942;28;20391;-76
2023/05/31 12:35:26;;;;;;;;;;;;;;;22.81;35.97;96060.28;5051487;28;19932;-76
2023/05/31 12:37:53;;;;;;;;;;;;;;;22.80;32.95;96069.16;5060432;28;20410;-76
2023/05/31 12:40:22;;;;;;;;;;;;;;;22.94;33.66;96053.53;5066128;28;20608;-76
2023/05/31 12:42:48;;;;;;;;;;;;;;;23.10;36.16;96065.91;5058668;28;19989;-75
2023/05/31 12:45:18;;;;;;;;;;;;;;;22.92;31.91;96049.41;5048694;28;19925;-75
2023/05/31 12:47:44;;;;;;;;;;;;;;;22.86;35.05;96058.78;5057158;28;20432;-77